Time;durP1;ratioP1;P1;durP2;ratioP2;P2;SDS_P1;SDS_P2;PMS_P1;PMS_P2;Temp;Humidity;BMP_temperature;BMP_pressure;BME280_temperature;BME280_humidity;BME280_pressure;Samples;Min_cycle;Max_cycle;Signal;HPM_P1;HPM_P2
2023/08/19 00:00:21;;;;;;;7.70;2.90;;;23.20;99.90;;;;;;5047946;28;20393;-68
2023/08/19 00:02:47;;;;;;;8.50;3.00;;;23.10;92.20;;;;;;5047977;28;20419;-71
2023/08/19 00:05:12;;;;;;;8.67;3.33;;;23.10;99.90;;;;;;5047218;28;20394;-71
2023/08/19 00:07:38;;;;;;;9.63;3.05;;;23.10;1.00;;;;;;5049171;28;20392;-71
2023/08/19 00:10:05;;;;;;;7.20;2.90;;;23.00;1.00;;;;;;5048744;28;20427;-71
2023/08/19 00:12:31;;;;;;;10.75;3.42;;;23.10;1.00;;;;;;5048514;28;20428;-71
2023/08/19 00:14:57;;;;;;;10.75;3.42;;;23.10;99.90;;;;;;5048187;28;20397;-71
2023/08/19 00:17:23;;;;;;;7.50;2.70;;;23.10;1.00;;;;;;5047764;28;20762;-71
2023/08/19 00:19:49;;;;;;;8.85;2.78;;;23.10;1.00;;;;;;5047448;28;20393;-71
2023/08/19 00:22:15;;;;;;;7.80;3.00;;;23.10;1.00;;;;;;5047510;28;20393;-71
2023/08/19 00:24:40;;;;;;;8.20;2.70;;;23.00;1.00;;;;;;5047822;28;20385;-71
2023/08/19 00:27:06;;;;;;;7.85;3.08;;;22.80;1.00;;;;;;5048081;28;20404;-71
2023/08/19 00:29:33;;;;;;;8.80;3.05;;;22.70;99.90;;;;;;5046900;28;21314;-71
2023/08/19 00:31:59;;;;;;;8.00;3.30;;;22.60;99.90;;;;;;5047688;28;20901;-71
2023/08/19 00:34:24;;;;;;;7.97;3.37;;;22.60;99.90;;;;;;5047255;28;20390;-71
2023/08/19 00:36:50;;;;;;;9.60;3.40;;;22.50;99.90;;;;;;5047612;28;20390;-71
2023/08/19 00:39:15;;;;;;;8.67;3.50;;;22.50;99.90;;;;;;5047731;28;20393;-71
2023/08/19 00:41:41;;;;;;;8.50;3.40;;;22.50;99.90;;;;;;5047370;28;20870;-71
2023/08/19 00:44:07;;;;;;;9.27;3.70;;;22.40;99.90;;;;;;5048020;28;20393;-71
2023/08/19 00:46:33;;;;;;;7.63;3.07;;;22.50;1.00;;;;;;5047470;28;20400;-71
2023/08/19 00:49:00;;;;;;;11.03;3.70;;;22.50;99.90;;;;;;5046860;28;20482;-71
2023/08/19 00:51:25;;;;;;;7.32;2.85;;;22.60;99.90;;;;;;5046022;28;20397;-71
2023/08/19 00:53:52;;;;;;;6.83;2.80;;;22.60;1.00;;;;;;5047396;28;20389;-71
2023/08/19 00:56:18;;;;;;;6.85;2.80;;;22.60;99.90;;;;;;5047363;28;20531;-71
2023/08/19 00:58:43;;;;;;;7.05;2.35;;;22.50;1.00;;;;;;5047290;28;20491;-70
2023/08/19 01:01:09;;;;;;;8.35;2.95;;;22.40;99.90;;;;;;5047939;28;20712;-71
2023/08/19 01:03:34;;;;;;;7.22;3.10;;;22.20;99.90;;;;;;5066281;28;20529;-71
2023/08/19 01:06:26;;;;;;;7.57;3.00;;;22.20;99.90;;;;;;5054168;28;20923;-71
2023/08/19 01:09:16;;;;;;;7.53;3.00;;;22.10;99.90;;;;;;5046628;28;20417;-71
2023/08/19 01:11:46;;;;;;;9.38;3.47;;;22.20;25.00;;;;;;5046791;28;20404;-71
2023/08/19 01:14:35;;;;;;;9.63;3.17;;;22.30;1.00;;;;;;5047085;28;20486;-71
2023/08/19 01:17:03;;;;;;;8.90;3.80;;;22.40;7.90;;;;;;5046901;28;20480;-71
2023/08/19 01:19:30;;;;;;;11.00;3.47;;;22.50;99.90;;;;;;5046842;28;20390;-70
2023/08/19 01:22:04;;;;;;;7.90;3.53;;;22.60;8.70;;;;;;5064001;28;20404;-71
2023/08/19 01:24:40;;;;;;;8.73;3.50;;;22.70;1.00;;;;;;5067208;28;20442;-71
2023/08/19 01:27:21;;;;;;;8.53;3.50;;;22.70;1.00;;;;;;5067512;28;20750;-71
2023/08/19 01:29:47;;;;;;;10.63;3.40;;;22.70;1.00;;;;;;5066988;28;20450;-71
2023/08/19 01:32:13;;;;;;;8.77;3.15;;;22.60;99.90;;;;;;5066856;28;20419;-71
2023/08/19 01:34:38;;;;;;;8.80;3.20;;;22.60;99.90;;;;;;5067346;28;20384;-71
2023/08/19 01:37:11;;;;;;;8.30;3.47;;;22.60;99.90;;;;;;5065963;28;20923;-71
2023/08/19 01:39:38;;;;;;;9.88;3.40;;;22.50;1.00;;;;;;5067851;28;20407;-71
2023/08/19 01:42:04;;;;;;;8.50;3.80;;;22.30;1.00;;;;;;5067013;28;20803;-71
2023/08/19 01:44:31;;;;;;;8.33;3.37;;;22.10;1.00;;;;;;5067017;28;20387;-71
2023/08/19 01:46:56;;;;;;;7.78;3.40;;;22.10;1.00;;;;;;5047169;28;20389;-71
2023/08/19 01:49:22;;;;;;;9.93;4.28;;;22.10;1.00;;;;;;5046720;28;20829;-71
2023/08/19 01:51:48;;;;;;;8.60;3.30;;;22.10;1.00;;;;;;5047112;28;20440;-70
2023/08/19 01:54:14;;;;;;;9.80;4.07;;;22.20;99.90;;;;;;5046845;28;20476;-71
2023/08/19 01:56:39;;;;;;;11.63;4.17;;;22.40;99.90;;;;;;5047032;28;20933;-72
2023/08/19 01:59:05;;;;;;;8.20;3.90;;;22.40;7.90;;;;;;5047546;28;20378;-71
2023/08/19 02:01:30;;;;;;;9.70;3.53;;;22.40;1.00;;;;;;5047003;28;20750;-71
2023/08/19 02:03:56;;;;;;;11.63;3.97;;;22.40;1.00;;;;;;5045644;28;20390;-71
2023/08/19 02:06:21;;;;;;;10.07;3.63;;;22.30;1.00;;;;;;5047639;28;20400;-71
2023/08/19 02:08:47;;;;;;;7.90;3.37;;;22.20;14.20;;;;;;5047169;28;20404;-71
2023/08/19 02:11:12;;;;;;;9.00;3.10;;;22.20;99.90;;;;;;5046696;28;20481;-71
2023/08/19 02:13:38;;;;;;;9.30;3.10;;;22.20;1.00;;;;;;5047648;28;20394;-71
2023/08/19 02:16:03;;;;;;;7.30;3.20;;;22.10;1.00;;;;;;5049190;28;20535;-71
2023/08/19 02:18:29;;;;;;;8.43;3.90;;;22.00;99.90;;;;;;5051030;28;20940;-71
2023/08/19 02:20:54;;;;;;;9.60;3.90;;;21.90;99.90;;;;;;5050659;28;20478;-71
2023/08/19 02:23:20;;;;;;;8.65;3.95;;;21.90;99.90;;;;;;5050754;28;20479;-71
2023/08/19 02:25:45;;;;;;;12.15;4.18;;;22.00;99.90;;;;;;5049944;28;20393;-71
2023/08/19 02:28:11;;;;;;;8.75;3.78;;;22.00;1.00;;;;;;5050230;28;20396;-71
2023/08/19 02:30:36;;;;;;;9.38;4.10;;;22.10;1.00;;;;;;5050115;28;20414;-71
2023/08/19 02:33:06;;;;;;;10.15;3.50;;;22.10;99.90;;;;;;5050183;28;20397;-71
2023/08/19 02:35:32;;;;;;;8.90;3.42;;;22.10;99.90;;;;;;5050147;28;20396;-71
2023/08/19 02:37:57;;;;;;;9.63;3.67;;;22.30;1.00;;;;;;5050259;28;20459;-71
2023/08/19 02:40:23;;;;;;;10.80;4.30;;;22.30;1.00;;;;;;5049670;28;20401;-71
2023/08/19 02:42:49;;;;;;;9.45;4.10;;;22.20;1.00;;;;;;5049751;28;20404;-70
2023/08/19 02:45:14;;;;;;;9.97;4.10;;;22.10;58.00;;;;;;5049659;28;20397;-71
2023/08/19 02:47:40;;;;;;;9.90;4.50;;;21.90;1.00;;;;;;5049864;28;20913;-71
2023/08/19 02:50:06;;;;;;;8.67;3.77;;;21.80;99.90;;;;;;5050060;28;20418;-71
2023/08/19 02:52:31;;;;;;;8.82;3.90;;;21.70;99.90;;;;;;5049199;28;20855;-70
2023/08/19 02:54:57;;;;;;;9.15;3.75;;;21.70;1.00;;;;;;5049742;28;20386;-71
2023/08/19 02:57:22;;;;;;;9.98;3.65;;;21.60;1.00;;;;;;5049494;28;20382;-71
2023/08/19 02:59:48;;;;;;;9.20;3.72;;;21.60;1.00;;;;;;5049398;28;20402;-71
2023/08/19 03:02:13;;;;;;;9.90;3.70;;;21.60;1.00;;;;;;5049357;28;20889;-70
2023/08/19 03:04:39;;;;;;;9.38;3.67;;;21.60;1.00;;;;;;5049274;28;20390;-70
2023/08/19 03:07:04;;;;;;;9.77;3.60;;;21.60;1.00;;;;;;5049908;28;20390;-71
2023/08/19 03:09:30;;;;;;;9.30;4.00;;;21.70;1.00;;;;;;5049451;28;20424;-71
2023/08/19 03:11:55;;;;;;;8.40;3.37;;;21.60;1.00;;;;;;5049407;28;20381;-71
2023/08/19 03:14:21;;;;;;;10.40;3.40;;;21.60;1.00;;;;;;5049361;28;20397;-71
2023/08/19 03:16:46;;;;;;;7.57;3.10;;;21.40;95.40;;;;;;5049200;28;20412;-70
2023/08/19 03:19:14;;;;;;;8.10;3.67;;;21.30;99.90;;;;;;5048943;28;20417;-71
2023/08/19 03:21:40;;;;;;;8.98;3.10;;;21.30;99.90;;;;;;5048921;28;20421;-70
2023/08/19 03:24:06;;;;;;;8.63;3.43;;;21.20;99.90;;;;;;5049757;28;20957;-71
2023/08/19 03:26:31;;;;;;;8.38;3.10;;;21.20;99.90;;;;;;5048058;28;20412;-71
2023/08/19 03:28:57;;;;;;;8.05;3.20;;;21.30;99.90;;;;;;5048369;28;20416;-72
2023/08/19 03:31:22;;;;;;;9.70;3.55;;;21.40;5.80;;;;;;5049132;28;20397;-71
2023/08/19 03:33:48;;;;;;;7.85;3.30;;;21.40;1.00;;;;;;5048648;28;20996;-71
2023/08/19 03:36:14;;;;;;;9.90;3.10;;;21.50;1.00;;;;;;5047390;28;20443;-71
2023/08/19 03:38:39;;;;;;;8.20;3.30;;;21.60;1.00;;;;;;5048876;28;20894;-71
2023/08/19 03:41:05;;;;;;;8.63;3.60;;;21.60;99.90;;;;;;5049217;28;20382;-71
2023/08/19 03:43:31;;;;;;;7.77;3.70;;;21.60;99.90;;;;;;5048045;28;20401;-71
2023/08/19 03:45:56;;;;;;;8.53;2.90;;;21.60;99.90;;;;;;5048546;28;20856;-71
2023/08/19 03:48:22;;;;;;;9.40;3.20;;;21.60;99.90;;;;;;5048151;28;20397;-71
2023/08/19 03:50:47;;;;;;;9.90;3.90;;;21.60;1.00;;;;;;5048395;28;20449;-72
2023/08/19 03:53:13;;;;;;;8.50;3.20;;;21.60;99.90;;;;;;5048824;28;20441;-71
2023/08/19 03:55:38;;;;;;;7.53;3.43;;;21.60;99.90;;;;;;5048826;28;20397;-71
2023/08/19 03:58:04;;;;;;;8.70;3.50;;;21.70;99.90;;;;;;5048332;28;20476;-71
2023/08/19 04:00:30;;;;;;;7.83;3.13;;;21.70;99.90;;;;;;5048383;28;20393;-71
2023/08/19 04:02:55;;;;;;;8.27;3.28;;;21.60;99.90;;;;;;5048224;28;20736;-71
2023/08/19 04:05:21;;;;;;;8.95;3.20;;;21.70;99.90;;;;;;5048107;28;20394;-71
2023/08/19 04:07:46;;;;;;;10.00;3.72;;;21.70;85.90;;;;;;5047984;28;20388;-71
2023/08/19 04:10:12;;;;;;;8.40;2.67;;;21.80;1.00;;;;;;5047618;28;20436;-71
2023/08/19 04:12:38;;;;;;;9.65;3.90;;;21.70;1.00;;;;;;5048547;28;20472;-71
2023/08/19 04:15:04;;;;;;;11.70;4.00;;;21.60;1.00;;;;;;5048021;28;20738;-71
2023/08/19 04:17:32;;;;;;;9.30;3.40;;;21.40;1.00;;;;;;5047825;28;20523;-71
2023/08/19 04:19:58;;;;;;;7.95;3.22;;;21.30;99.90;;;;;;5047708;28;20786;-71
2023/08/19 04:22:24;;;;;;;8.40;3.05;;;21.10;99.90;;;;;;5047494;28;20397;-71
2023/08/19 04:24:53;;;;;;;8.68;3.47;;;21.00;99.90;;;;;;5047667;28;20386;-71
2023/08/19 04:27:19;;;;;;;9.52;3.20;;;20.90;99.90;;;;;;5047694;28;20408;-71
2023/08/19 04:29:45;;;;;;;8.37;3.10;;;20.70;1.00;;;;;;5047982;28;20410;-71
2023/08/19 04:32:10;;;;;;;9.80;2.90;;;20.80;1.00;;;;;;5047589;28;20396;-71
2023/08/19 04:34:36;;;;;;;9.65;3.33;;;20.80;99.90;;;;;;5048014;28;20398;-71
2023/08/19 04:37:02;;;;;;;7.75;3.55;;;20.90;99.90;;;;;;5047983;28;20421;-70
2023/08/19 04:39:28;;;;;;;8.98;3.63;;;21.10;99.90;;;;;;5046611;28;20390;-71
2023/08/19 04:41:53;;;;;;;7.63;2.90;;;21.10;99.90;;;;;;5047484;28;20390;-71
2023/08/19 04:44:19;;;;;;;7.90;3.40;;;21.10;99.90;;;;;;5057035;28;20435;-71
2023/08/19 04:46:45;;;;;;;8.83;3.43;;;21.00;99.90;;;;;;5067566;28;20452;-71
2023/08/19 04:49:10;;;;;;;9.75;3.40;;;20.90;99.90;;;;;;5062671;28;21089;-71
2023/08/19 04:51:36;;;;;;;8.82;3.70;;;20.90;99.90;;;;;;5047889;28;20397;-71
2023/08/19 04:54:03;;;;;;;9.47;3.53;;;21.00;99.90;;;;;;5047229;28;20869;-71
2023/08/19 04:56:29;;;;;;;10.80;3.73;;;21.10;99.90;;;;;;5046977;28;20389;-71
2023/08/19 04:58:55;;;;;;;11.75;4.75;;;21.20;99.90;;;;;;5045985;28;20419;-71
2023/08/19 05:01:20;;;;;;;10.82;4.13;;;21.40;99.90;;;;;;5047125;28;20429;-71
2023/08/19 05:03:46;;;;;;;8.80;3.67;;;21.60;16.70;;;;;;5047311;28;20800;-71
2023/08/19 05:06:12;;;;;;;10.53;4.50;;;21.70;1.00;;;;;;5047497;28;20436;-71
2023/08/19 05:08:37;;;;;;;9.73;4.03;;;21.70;1.00;;;;;;5047899;28;20389;-71
2023/08/19 05:11:03;;;;;;;8.77;3.40;;;21.70;1.00;;;;;;5065360;28;20738;-71
2023/08/19 05:13:29;;;;;;;7.97;3.60;;;21.70;1.00;;;;;;5067726;28;20392;-71
2023/08/19 05:15:54;;;;;;;13.70;3.35;;;21.70;1.00;;;;;;5066938;28;20848;-71
2023/08/19 05:18:20;;;;;;;7.60;3.22;;;21.80;1.00;;;;;;5066922;28;20440;-71
2023/08/19 05:20:45;;;;;;;8.65;3.60;;;21.80;1.00;;;;;;5066824;28;20832;-71
2023/08/19 05:23:11;;;;;;;8.38;3.47;;;21.90;1.00;;;;;;5066711;28;20383;-71
2023/08/19 05:25:37;;;;;;;8.45;3.50;;;21.90;1.00;;;;;;5067938;28;20555;-71
2023/08/19 05:28:03;;;;;;;8.83;3.67;;;22.00;99.90;;;;;;5067082;28;20861;-71
2023/08/19 05:30:28;;;;;;;9.35;3.53;;;22.00;99.90;;;;;;5067010;28;20431;-71
2023/08/19 05:32:54;;;;;;;9.40;3.90;;;22.20;99.90;;;;;;5066910;28;20391;-71
2023/08/19 05:35:20;;;;;;;12.55;4.13;;;22.40;99.90;;;;;;5066759;28;20733;-69
2023/08/19 05:37:45;;;;;;;7.63;3.33;;;23.20;1.00;;;;;;5066662;28;20404;-69
2023/08/19 05:40:11;;;;;;;8.40;3.45;;;24.00;99.90;;;;;;5066883;28;20417;-70
2023/08/19 05:42:36;;;;;;;8.33;3.70;;;24.50;99.90;;;;;;5067477;28;20388;-69
2023/08/19 05:45:02;;;;;;;9.70;3.47;;;24.80;1.00;;;;;;5066994;28;20387;-71
2023/08/19 05:47:28;;;;;;;9.48;3.70;;;25.30;1.00;;;;;;5066706;28;20410;-72
2023/08/19 05:49:54;;;;;;;8.30;3.40;;;26.40;99.90;;;;;;5065862;28;20458;-72
2023/08/19 05:52:19;;;;;;;10.52;3.85;;;27.80;1.00;;;;;;5070462;28;20756;-69
2023/08/19 05:54:45;;;;;;;9.30;3.58;;;28.70;1.00;;;;;;5070549;28;20388;-70
2023/08/19 05:57:10;;;;;;;9.20;3.42;;;29.50;1.00;;;;;;5070456;28;20392;-69
2023/08/19 05:59:36;;;;;;;9.53;3.70;;;30.10;99.90;;;;;;5071060;28;20372;-69
2023/08/19 06:02:01;;;;;;;9.33;3.30;;;31.00;99.90;;;;;;5070756;28;20441;-70
2023/08/19 06:04:27;;;;;;;9.60;3.35;;;31.70;99.90;;;;;;5061504;28;20925;-72
2023/08/19 06:06:53;;;;;;;10.00;3.80;;;32.30;99.90;;;;;;5057749;28;20398;-72
2023/08/19 06:09:18;;;;;;;8.97;2.90;;;32.40;99.90;;;;;;5066002;28;20417;-72
2023/08/19 06:11:52;;;;;;;8.48;3.50;;;32.30;99.90;;;;;;5050243;28;20401;-72
2023/08/19 06:14:18;;;;;;;9.10;3.42;;;32.20;99.90;;;;;;5060480;28;20393;-72
2023/08/19 06:16:45;;;;;;;8.63;3.70;;;32.30;99.90;;;;;;5070332;28;20383;-72
2023/08/19 06:19:10;;;;;;;10.30;3.45;;;32.40;99.90;;;;;;5069859;28;20744;-72
2023/08/19 06:21:36;;;;;;;10.20;3.78;;;32.50;99.90;;;;;;5070089;28;20422;-72
2023/08/19 06:24:02;;;;;;;8.03;3.37;;;32.50;99.90;;;;;;5061456;28;20580;-73
2023/08/19 06:26:27;;;;;;;12.60;3.10;;;32.60;99.90;;;;;;5066007;28;20410;-73
2023/08/19 06:28:53;;;;;;;10.17;3.70;;;33.10;99.90;;;;;;5070165;28;20383;-73
2023/08/19 06:31:19;;;;;;;9.05;3.72;;;33.40;99.90;;;;;;5070398;28;20408;-72
2023/08/19 06:33:45;;;;;;;10.02;3.17;;;33.60;99.90;;;;;;5069090;28;20379;-73
2023/08/19 06:36:12;;;;;;;8.63;3.40;;;33.60;99.90;;;;;;5059279;28;20939;-70
2023/08/19 06:38:46;;;;;;;11.32;3.60;;;34.50;99.90;;;;;;5056352;28;20616;-69
2023/08/19 06:41:12;;;;;;;9.50;3.60;;;34.20;99.90;;;;;;5057018;28;20394;-72
2023/08/19 06:43:38;;;;;;;9.18;3.20;;;34.00;99.90;;;;;;5056525;28;20412;-72
2023/08/19 06:46:06;;;;;;;9.68;3.70;;;34.00;99.90;;;;;;5058722;28;20549;-72
2023/08/19 06:48:32;;;;;;;8.25;3.33;;;34.20;99.90;;;;;;5055925;28;20382;-70
2023/08/19 06:50:59;;;;;;;7.65;3.50;;;34.40;99.90;;;;;;5060250;28;20499;-70
2023/08/19 06:53:25;;;;;;;9.43;3.70;;;34.90;99.90;;;;;;5058739;28;20388;-70
2023/08/19 06:56:09;;;;;;;9.30;3.38;;;35.50;99.90;;;;;;5069238;28;20392;-70
2023/08/19 06:58:40;;;;;;;9.30;3.35;;;35.60;99.90;;;;;;5069772;28;20387;-70
2023/08/19 07:01:18;;;;;;;8.30;3.50;;;36.10;99.90;;;;;;5066794;28;20746;-70
2023/08/19 07:03:44;;;;;;;8.57;3.53;;;36.70;99.90;;;;;;5057026;28;20400;-72
2023/08/19 07:06:15;;;;;;;7.53;3.67;;;37.20;99.90;;;;;;5064111;28;20452;-72
2023/08/19 07:08:43;;;;;;;8.70;3.20;;;37.40;99.90;;;;;;5056679;28;20431;-72
2023/08/19 07:11:09;;;;;;;9.27;3.83;;;37.70;99.90;;;;;;5058992;28;20851;-72
2023/08/19 07:13:35;;;;;;;8.07;3.60;;;37.70;99.90;;;;;;5062704;28;20423;-72
2023/08/19 07:16:03;;;;;;;8.50;3.70;;;37.60;99.90;;;;;;5062102;28;20401;-72
2023/08/19 07:18:32;;;;;;;8.30;3.50;;;37.60;99.90;;;;;;5057772;28;20389;-72
2023/08/19 07:21:00;;;;;;;8.13;3.20;;;37.70;99.90;;;;;;5058719;28;20411;-73
2023/08/19 07:23:26;;;;;;;9.98;4.80;;;38.20;99.90;;;;;;5056682;28;20902;-73
2023/08/19 07:25:52;;;;;;;8.30;3.65;;;38.70;99.90;;;;;;5058532;28;20428;-73
2023/08/19 07:28:22;;;;;;;8.05;3.38;;;38.70;99.90;;;;;;5060069;28;20445;-72
2023/08/19 07:30:47;;;;;;;8.85;3.60;;;39.20;99.90;;;;;;5058201;28;20492;-71
2023/08/19 07:33:13;;;;;;;7.40;3.20;;;39.90;99.90;;;;;;5059998;28;20484;-71
2023/08/19 07:35:39;;;;;;;8.77;3.20;;;40.20;99.90;;;;;;5060089;28;20430;-71
2023/08/19 07:38:05;;;;;;;7.83;3.50;;;40.10;99.90;;;;;;5059938;28;20453;-71
2023/08/19 07:40:31;;;;;;;8.80;3.28;;;39.80;99.90;;;;;;5058743;28;20409;-70
2023/08/19 07:42:56;;;;;;;7.27;2.83;;;39.70;99.90;;;;;;5060053;28;20402;-70
2023/08/19 07:45:22;;;;;;;8.70;3.10;;;39.60;99.90;;;;;;5057336;28;20405;-71
2023/08/19 07:47:48;;;;;;;9.03;3.50;;;40.10;99.90;;;;;;5056827;28;20405;-70
2023/08/19 07:50:13;;;;;;;7.90;3.05;;;40.60;99.90;;;;;;5059811;28;20466;-71
2023/08/19 07:52:39;;;;;;;9.27;3.50;;;41.50;99.90;;;;;;5060276;28;20394;-71
2023/08/19 07:55:05;;;;;;;7.50;3.30;;;42.00;99.90;;;;;;5057924;28;20613;-71
2023/08/19 07:57:30;;;;;;;7.00;2.97;;;42.00;99.90;;;;;;5059486;28;20438;-70
2023/08/19 07:59:56;;;;;;;7.90;2.97;;;41.10;99.90;;;;;;5058435;28;20417;-71
2023/08/19 08:02:22;;;;;;;7.90;3.10;;;41.20;99.90;;;;;;5063047;28;20954;-70
2023/08/19 08:04:47;;;;;;;6.88;3.10;;;41.60;99.90;;;;;;5058775;28;20912;-71
2023/08/19 08:07:13;;;;;;;7.73;3.40;;;42.20;99.90;;;;;;5066259;28;20392;-71
2023/08/19 08:09:38;;;;;;;7.87;3.10;;;41.60;99.90;;;;;;5061584;28;20434;-70
2023/08/19 08:12:04;;;;;;;6.70;3.00;;;42.00;99.90;;;;;;5059890;28;20570;-71
2023/08/19 08:14:30;;;;;;;9.68;3.20;;;42.60;99.90;;;;;;5056598;28;21158;-71
2023/08/19 08:16:56;;;;;;;11.23;3.40;;;43.20;99.90;;;;;;5055465;28;20461;-71
2023/08/19 08:19:25;;;;;;;9.35;3.28;;;43.70;99.90;;;;;;5050749;28;20850;-71
2023/08/19 08:21:51;;;;;;;8.70;3.10;;;44.20;99.90;;;;;;5055048;28;20467;-71
2023/08/19 08:24:17;;;;;;;8.60;3.03;;;43.50;99.90;;;;;;5054447;28;20880;-71
2023/08/19 08:26:43;;;;;;;8.15;3.17;;;42.40;99.90;;;;;;5056677;28;20906;-71
2023/08/19 08:29:08;;;;;;;7.17;3.17;;;43.00;99.90;;;;;;5059207;28;20412;-71
2023/08/19 08:31:34;;;;;;;7.80;3.30;;;42.80;99.90;;;;;;5058623;28;20459;-71
2023/08/19 08:36:47;;;;;;;7.90;3.30;;;43.50;99.90;;;;;;5221747;22;22750;-70
2023/08/19 08:39:14;;;;;;;7.53;3.33;;;42.80;99.90;;;;;;5064050;28;20419;-71
2023/08/19 08:41:40;;;;;;;8.98;3.47;;;42.80;99.90;;;;;;5066496;28;20491;-70
2023/08/19 08:44:09;;;;;;;8.30;3.15;;;43.30;99.90;;;;;;5066620;28;20392;-70
2023/08/19 08:46:36;;;;;;;8.93;3.17;;;42.90;99.90;;;;;;5056479;28;20404;-71
2023/08/19 08:49:03;;;;;;;8.47;3.80;;;42.90;99.90;;;;;;5066608;28;20447;-73
2023/08/19 08:51:29;;;;;;;8.27;3.42;;;43.40;99.90;;;;;;5062814;28;20396;-71
2023/08/19 08:53:56;;;;;;;8.80;3.10;;;42.90;99.90;;;;;;5057214;28;20896;-71
2023/08/19 08:56:23;;;;;;;7.80;3.40;;;43.30;99.90;;;;;;5060951;28;20757;-70
2023/08/19 08:58:49;;;;;;;8.90;3.80;;;42.90;99.90;;;;;;5066204;28;20819;-70
2023/08/19 09:01:17;;;;;;;8.33;3.30;;;43.10;99.90;;;;;;5067160;28;20459;-71
2023/08/19 09:03:45;;;;;;;9.30;3.70;;;43.00;99.90;;;;;;5066458;28;20993;-71
2023/08/19 09:06:18;;;;;;;8.20;3.40;;;42.50;99.90;;;;;;5067290;28;20387;-70
2023/08/19 09:08:52;;;;;;;7.22;3.03;;;42.90;99.90;;;;;;5067306;28;20388;-71
2023/08/19 09:11:24;;;;;;;7.70;3.30;;;43.70;99.90;;;;;;5067003;28;20387;-71
2023/08/19 09:13:55;;;;;;;9.10;3.53;;;45.20;99.90;;;;;;5066465;28;20399;-71
2023/08/19 09:16:21;;;;;;;8.53;3.90;;;45.40;99.90;;;;;;5067358;28;20439;-71
2023/08/19 09:18:47;;;;;;;9.07;3.60;;;45.10;99.90;;;;;;5067211;28;20380;-71
2023/08/19 09:21:12;;;;;;;8.48;3.20;;;44.80;99.90;;;;;;5061453;28;20404;-71
2023/08/19 09:23:39;;;;;;;7.40;3.10;;;44.50;99.90;;;;;;5065347;28;20879;-71
2023/08/19 09:26:08;;;;;;;7.55;2.90;;;44.10;99.90;;;;;;5069842;28;20383;-71
2023/08/19 09:28:33;;;;;;;8.95;3.53;;;44.90;99.90;;;;;;5053728;28;20398;-71
2023/08/19 09:30:59;;;;;;;8.87;3.70;;;45.30;99.90;;;;;;5055859;28;20421;-71
2023/08/19 09:33:24;;;;;;;10.10;3.40;;;45.10;99.90;;;;;;5051512;28;20424;-71
2023/08/19 09:35:57;;;;;;;7.20;3.35;;;45.60;99.90;;;;;;5051425;28;20388;-71
2023/08/19 09:38:24;;;;;;;7.65;3.20;;;46.20;99.90;;;;;;5051696;28;20421;-71
2023/08/19 09:41:02;;;;;;;8.70;3.40;;;46.50;99.90;;;;;;5051338;28;20381;-71
2023/08/19 09:43:28;;;;;;;8.75;3.55;;;47.20;99.90;;;;;;5051259;28;20401;-71
2023/08/19 09:46:00;;;;;;;9.70;3.70;;;46.90;99.90;;;;;;5051528;28;20883;-71
2023/08/19 09:48:26;;;;;;;8.85;3.85;;;46.80;99.90;;;;;;5051694;28;20400;-71
2023/08/19 09:50:52;;;;;;;8.27;3.38;;;45.30;99.90;;;;;;5051277;28;20420;-71
2023/08/19 09:53:19;;;;;;;10.73;3.95;;;45.20;99.90;;;;;;5049642;28;20385;-71
2023/08/19 09:55:46;;;;;;;9.00;3.20;;;45.10;99.90;;;;;;5051223;28;20920;-70
2023/08/19 09:58:12;;;;;;;9.65;3.50;;;44.80;99.90;;;;;;5050928;28;20377;-71
2023/08/19 10:00:38;;;;;;;8.45;3.85;;;45.50;99.90;;;;;;5051088;28;20400;-71
2023/08/19 10:03:05;;;;;;;9.80;3.60;;;45.40;99.90;;;;;;5051109;28;20440;-71
2023/08/19 10:05:34;;;;;;;8.63;3.20;;;45.00;99.90;;;;;;5050641;28;20392;-71
2023/08/19 10:08:03;;;;;;;9.95;4.00;;;45.80;99.90;;;;;;5050867;28;20935;-71
2023/08/19 10:10:33;;;;;;;9.33;3.83;;;46.10;99.90;;;;;;5050821;28;20417;-71
2023/08/19 10:13:00;;;;;;;8.50;3.70;;;46.20;99.90;;;;;;5052267;28;20441;-71
2023/08/19 10:15:27;;;;;;;7.87;3.20;;;45.20;99.90;;;;;;5071499;28;20515;-71
2023/08/19 10:17:57;;;;;;;8.55;4.00;;;44.70;99.90;;;;;;5060116;28;20391;-71
2023/08/19 10:20:26;;;;;;;8.48;3.50;;;45.00;99.90;;;;;;5066665;28;20795;-71
2023/08/19 10:22:56;;;;;;;7.68;3.35;;;45.40;99.90;;;;;;5062547;28;20457;-71
2023/08/19 10:25:23;;;;;;;8.10;3.60;;;45.10;99.90;;;;;;5062085;28;20396;-72
2023/08/19 10:27:49;;;;;;;11.32;3.80;;;44.90;99.90;;;;;;5069228;28;20875;-71
2023/08/19 10:30:28;;;;;;;12.63;3.50;;;45.00;99.90;;;;;;5066996;28;20451;-71
2023/08/19 10:32:54;;;;;;;8.43;3.50;;;44.50;99.90;;;;;;5058395;28;20734;-71
2023/08/19 10:35:19;;;;;;;9.93;3.50;;;43.90;99.90;;;;;;5069693;28;20388;-71
2023/08/19 10:37:50;;;;;;;7.60;3.70;;;43.40;99.90;;;;;;5069461;28;20803;-71
2023/08/19 10:40:21;;;;;;;9.00;3.70;;;43.60;99.90;;;;;;5069790;28;20446;-71
2023/08/19 10:43:00;;;;;;;8.30;3.08;;;42.70;99.90;;;;;;5069974;28;20419;-71
2023/08/19 10:45:34;;;;;;;7.25;3.22;;;42.10;99.90;;;;;;5069862;28;20388;-71
2023/08/19 10:48:00;;;;;;;9.88;3.42;;;41.70;99.90;;;;;;5069771;28;20468;-71
2023/08/19 10:50:26;;;;;;;9.00;3.60;;;41.40;99.90;;;;;;5069769;28;20844;-71
2023/08/19 10:53:04;;;;;;;9.10;3.60;;;40.10;99.90;;;;;;5070024;28;20395;-71
2023/08/19 10:55:52;;;;;;;8.10;3.60;;;39.30;99.90;;;;;;5069393;28;20388;-71
2023/08/19 10:58:19;;;;;;;7.70;3.60;;;38.90;99.90;;;;;;5069653;28;20400;-70
2023/08/19 11:00:45;;;;;;;9.85;3.40;;;38.70;99.90;;;;;;5069384;28;20437;-71
2023/08/19 11:03:11;;;;;;;8.20;3.40;;;38.50;99.90;;;;;;5069652;28;20388;-71
2023/08/19 11:05:38;;;;;;;9.80;4.00;;;38.40;99.90;;;;;;5069869;28;20883;-71
2023/08/19 11:08:06;;;;;;;8.48;3.60;;;38.50;99.90;;;;;;5070295;28;20387;-70
2023/08/19 11:10:32;;;;;;;8.85;3.80;;;38.70;99.90;;;;;;5069801;28;20403;-73
2023/08/19 11:13:00;;;;;;;9.43;3.30;;;39.10;99.90;;;;;;5068120;28;20976;-73
2023/08/19 11:15:25;;;;;;;8.00;3.10;;;39.40;99.90;;;;;;5049159;28;20412;-73
2023/08/19 11:17:51;;;;;;;9.15;3.30;;;39.20;99.90;;;;;;5049675;28;20765;-73
2023/08/19 11:20:17;;;;;;;9.40;3.30;;;39.10;99.90;;;;;;5049555;28;20747;-73
2023/08/19 11:22:48;;;;;;;10.30;3.10;;;39.20;99.90;;;;;;5049928;28;20484;-73
2023/08/19 11:25:15;;;;;;;8.40;3.70;;;39.50;99.90;;;;;;5049755;28;20746;-73
2023/08/19 11:27:42;;;;;;;9.00;3.60;;;39.50;99.90;;;;;;5049956;28;20444;-73
2023/08/19 11:30:11;;;;;;;8.80;3.10;;;39.20;99.90;;;;;;5048062;28;20413;-73
2023/08/19 11:32:37;;;;;;;9.20;3.10;;;39.20;99.90;;;;;;5069294;28;20846;-73
2023/08/19 11:35:03;;;;;;;9.60;3.60;;;39.30;99.90;;;;;;5069708;28;20419;-73
2023/08/19 11:37:29;;;;;;;8.93;3.37;;;39.10;99.90;;;;;;5069446;28;20408;-72
2023/08/19 11:39:55;;;;;;;10.60;3.20;;;38.90;99.90;;;;;;5069572;28;20931;-73
2023/08/19 11:42:20;;;;;;;7.70;3.60;;;39.10;99.90;;;;;;5069542;28;20430;-72
2023/08/19 11:44:46;;;;;;;9.27;3.45;;;39.40;99.90;;;;;;5069309;28;20424;-73
2023/08/19 11:47:13;;;;;;;11.13;3.10;;;39.20;99.90;;;;;;5069109;28;20416;-73
2023/08/19 11:49:42;;;;;;;7.95;3.10;;;38.50;99.90;;;;;;5069083;28;20836;-74
2023/08/19 11:52:08;;;;;;;8.68;3.28;;;38.40;99.90;;;;;;5069211;28;20400;-74
2023/08/19 11:54:33;;;;;;;11.70;3.07;;;38.50;99.90;;;;;;5068762;28;20445;-74
2023/08/19 11:57:02;;;;;;;8.97;3.17;;;38.60;99.90;;;;;;5067604;28;20407;-74
2023/08/19 11:59:32;;;;;;;8.13;3.27;;;38.70;99.90;;;;;;5059811;28;20397;-74
2023/08/19 12:02:02;;;;;;;8.23;3.00;;;38.70;99.90;;;;;;5049295;28;20465;-73
2023/08/19 12:04:27;;;;;;;8.65;3.33;;;38.70;99.90;;;;;;5049233;28;20398;-74
2023/08/19 12:06:53;;;;;;;8.30;2.80;;;38.60;99.90;;;;;;5049516;28;20396;-73
2023/08/19 12:09:30;;;;;;;7.93;3.03;;;38.80;99.90;;;;;;5048696;28;20909;-73
2023/08/19 12:12:01;;;;;;;7.97;3.07;;;38.90;99.90;;;;;;5049364;28;20892;-73
2023/08/19 12:14:27;;;;;;;7.90;3.20;;;38.70;99.90;;;;;;5063149;28;20387;-71
2023/08/19 12:16:52;;;;;;;9.23;2.88;;;38.40;99.90;;;;;;5069292;28;20404;-71
2023/08/19 12:19:19;;;;;;;10.27;3.27;;;38.40;99.90;;;;;;5068528;28;20417;-73
2023/08/19 12:21:44;;;;;;;11.68;4.45;;;38.50;99.90;;;;;;5068537;28;20778;-74
2023/08/19 12:24:10;;;;;;;11.27;2.93;;;38.60;99.90;;;;;;5068865;28;20380;-73
2023/08/19 12:26:35;;;;;;;12.45;4.75;;;38.50;99.90;;;;;;5068561;28;20444;-73
2023/08/19 12:29:02;;;;;;;7.37;3.10;;;38.50;99.90;;;;;;5069203;28;20380;-71
2023/08/19 12:31:27;;;;;;;8.80;3.08;;;38.30;99.90;;;;;;5058061;28;20896;-70
2023/08/19 12:33:53;;;;;;;10.63;3.30;;;38.20;99.90;;;;;;5048976;28;20400;-70
2023/08/19 12:36:18;;;;;;;7.30;2.90;;;37.80;99.90;;;;;;5048178;28;21035;-70
2023/08/19 12:38:45;;;;;;;7.97;2.80;;;37.80;99.90;;;;;;5050000;28;20459;-70
2023/08/19 12:41:11;;;;;;;8.40;2.70;;;38.00;99.90;;;;;;5059405;28;20389;-71
2023/08/19 12:43:37;;;;;;;10.38;2.95;;;38.00;99.90;;;;;;5056323;28;20380;-72
2023/08/19 12:46:03;;;;;;;7.77;2.97;;;37.90;99.90;;;;;;5065940;28;20403;-71
2023/08/19 12:48:28;;;;;;;9.20;3.27;;;37.80;99.90;;;;;;5067962;28;20399;-71